sensor_id;sensor_type;location;lat;lon;timestamp;P1;durP1;ratioP1;P2;durP2;ratioP2
66189;SDS011;52992;52.084;5.412;2022-07-04T00:00:13;4.57;;;2.40;;
66189;SDS011;52992;52.084;5.412;2022-07-04T00:02:44;3.27;;;2.47;;
66189;SDS011;52992;52.084;5.412;2022-07-04T00:05:13;3.37;;;2.30;;
66189;SDS011;52992;52.084;5.412;2022-07-04T00:07:48;2.77;;;2.20;;
66189;SDS011;52992;52.084;5.412;2022-07-04T00:10:21;3.07;;;2.20;;
66189;SDS011;52992;52.084;5.412;2022-07-04T00:12:48;3.37;;;2.47;;
66189;SDS011;52992;52.084;5.412;2022-07-04T00:15:16;3.33;;;2.37;;
66189;SDS011;52992;52.084;5.412;2022-07-04T00:17:52;3.97;;;2.40;;
66189;SDS011;52992;52.084;5.412;2022-07-04T00:20:19;4.23;;;2.40;;
66189;SDS011;52992;52.084;5.412;2022-07-04T00:22:47;4.00;;;2.80;;
66189;SDS011;52992;52.084;5.412;2022-07-04T00:25:14;5.50;;;2.93;;
66189;SDS011;52992;52.084;5.412;2022-07-04T00:27:44;4.13;;;2.53;;
66189;SDS011;52992;52.084;5.412;2022-07-04T00:30:14;4.43;;;2.30;;
66189;SDS011;52992;52.084;5.412;2022-07-04T00:32:41;3.93;;;2.47;;
66189;SDS011;52992;52.084;5.412;2022-07-04T00:35:12;3.20;;;2.27;;
66189;SDS011;52992;52.084;5.412;2022-07-04T00:37:39;2.47;;;2.27;;
66189;SDS011;52992;52.084;5.412;2022-07-04T00:40:06;3.50;;;2.40;;
66189;SDS011;52992;52.084;5.412;2022-07-04T00:42:33;5.30;;;2.63;;
66189;SDS011;52992;52.084;5.412;2022-07-04T00:45:00;4.70;;;2.53;;
66189;SDS011;52992;52.084;5.412;2022-07-04T00:47:27;5.90;;;2.90;;
66189;SDS011;52992;52.084;5.412;2022-07-04T00:49:54;4.70;;;2.70;;
66189;SDS011;52992;52.084;5.412;2022-07-04T00:52:21;5.33;;;2.80;;
66189;SDS011;52992;52.084;5.412;2022-07-04T00:54:52;5.10;;;2.90;;
66189;SDS011;52992;52.084;5.412;2022-07-04T00:57:18;3.60;;;2.47;;
66189;SDS011;52992;52.084;5.412;2022-07-04T00:59:55;3.40;;;2.27;;
66189;SDS011;52992;52.084;5.412;2022-07-04T01:02:25;3.63;;;2.90;;
66189;SDS011;52992;52.084;5.412;2022-07-04T01:04:55;2.73;;;2.50;;
66189;SDS011;52992;52.084;5.412;2022-07-04T01:07:30;3.07;;;2.77;;
66189;SDS011;52992;52.084;5.412;2022-07-04T01:09:57;5.87;;;2.37;;
66189;SDS011;52992;52.084;5.412;2022-07-04T01:12:28;4.87;;;2.80;;
66189;SDS011;52992;52.084;5.412;2022-07-04T01:14:55;3.03;;;2.70;;
66189;SDS011;52992;52.084;5.412;2022-07-04T01:17:29;2.70;;;2.40;;
66189;SDS011;52992;52.084;5.412;2022-07-04T01:19:56;3.03;;;2.50;;
66189;SDS011;52992;52.084;5.412;2022-07-04T01:22:23;4.03;;;2.37;;
66189;SDS011;52992;52.084;5.412;2022-07-04T01:24:50;2.40;;;2.13;;
66189;SDS011;52992;52.084;5.412;2022-07-04T01:27:17;6.47;;;2.40;;
66189;SDS011;52992;52.084;5.412;2022-07-04T01:29:44;3.00;;;2.07;;
66189;SDS011;52992;52.084;5.412;2022-07-04T01:32:11;4.00;;;2.47;;
66189;SDS011;52992;52.084;5.412;2022-07-04T01:34:38;3.00;;;2.40;;
66189;SDS011;52992;52.084;5.412;2022-07-04T01:37:09;4.80;;;2.50;;
66189;SDS011;52992;52.084;5.412;2022-07-04T01:39:37;3.37;;;2.53;;
66189;SDS011;52992;52.084;5.412;2022-07-04T01:42:04;5.03;;;2.93;;
66189;SDS011;52992;52.084;5.412;2022-07-04T01:44:35;4.97;;;2.73;;
66189;SDS011;52992;52.084;5.412;2022-07-04T01:47:02;4.80;;;2.83;;
66189;SDS011;52992;52.084;5.412;2022-07-04T01:49:30;4.20;;;3.03;;
66189;SDS011;52992;52.084;5.412;2022-07-04T01:52:00;3.87;;;2.57;;
66189;SDS011;52992;52.084;5.412;2022-07-04T01:54:28;4.93;;;2.83;;
66189;SDS011;52992;52.084;5.412;2022-07-04T01:56:55;4.73;;;2.87;;
66189;SDS011;52992;52.084;5.412;2022-07-04T01:59:22;4.27;;;3.40;;
66189;SDS011;52992;52.084;5.412;2022-07-04T02:02:09;6.17;;;3.03;;
66189;SDS011;52992;52.084;5.412;2022-07-04T02:04:36;4.90;;;3.20;;
66189;SDS011;52992;52.084;5.412;2022-07-04T02:07:03;3.40;;;2.97;;
66189;SDS011;52992;52.084;5.412;2022-07-04T02:09:30;5.93;;;3.00;;
66189;SDS011;52992;52.084;5.412;2022-07-04T02:11:57;6.20;;;3.30;;
66189;SDS011;52992;52.084;5.412;2022-07-04T02:14:42;4.40;;;3.20;;
66189;SDS011;52992;52.084;5.412;2022-07-04T02:17:10;5.13;;;3.63;;
66189;SDS011;52992;52.084;5.412;2022-07-04T02:19:38;5.37;;;3.80;;
66189;SDS011;52992;52.084;5.412;2022-07-04T02:22:04;4.17;;;3.47;;
66189;SDS011;52992;52.084;5.412;2022-07-04T02:24:31;4.53;;;3.30;;
66189;SDS011;52992;52.084;5.412;2022-07-04T02:26:58;6.73;;;3.60;;
66189;SDS011;52992;52.084;5.412;2022-07-04T02:29:25;5.30;;;3.60;;
66189;SDS011;52992;52.084;5.412;2022-07-04T02:31:52;8.10;;;4.13;;
66189;SDS011;52992;52.084;5.412;2022-07-04T02:34:19;4.20;;;3.80;;
66189;SDS011;52992;52.084;5.412;2022-07-04T02:36:46;5.97;;;4.00;;
66189;SDS011;52992;52.084;5.412;2022-07-04T02:39:13;5.20;;;3.90;;
66189;SDS011;52992;52.084;5.412;2022-07-04T02:41:39;9.53;;;4.17;;
66189;SDS011;52992;52.084;5.412;2022-07-04T02:44:07;4.23;;;3.30;;
66189;SDS011;52992;52.084;5.412;2022-07-04T02:46:34;6.70;;;4.17;;
66189;SDS011;52992;52.084;5.412;2022-07-04T02:49:01;7.90;;;4.20;;
66189;SDS011;52992;52.084;5.412;2022-07-04T02:51:29;6.63;;;4.00;;
66189;SDS011;52992;52.084;5.412;2022-07-04T02:53:56;5.40;;;3.90;;
66189;SDS011;52992;52.084;5.412;2022-07-04T02:56:23;5.97;;;4.10;;
66189;SDS011;52992;52.084;5.412;2022-07-04T02:58:50;5.23;;;3.93;;
66189;SDS011;52992;52.084;5.412;2022-07-04T03:01:17;5.00;;;4.27;;
66189;SDS011;52992;52.084;5.412;2022-07-04T03:03:46;5.53;;;4.27;;
66189;SDS011;52992;52.084;5.412;2022-07-04T03:06:13;6.23;;;4.23;;
66189;SDS011;52992;52.084;5.412;2022-07-04T03:08:40;4.73;;;4.20;;
66189;SDS011;52992;52.084;5.412;2022-07-04T03:11:08;7.17;;;4.67;;
66189;SDS011;52992;52.084;5.412;2022-07-04T03:13:35;8.53;;;4.93;;
66189;SDS011;52992;52.084;5.412;2022-07-04T03:16:03;8.23;;;4.97;;
66189;SDS011;52992;52.084;5.412;2022-07-04T03:18:30;7.40;;;4.80;;
66189;SDS011;52992;52.084;5.412;2022-07-04T03:20:57;7.17;;;5.17;;
66189;SDS011;52992;52.084;5.412;2022-07-04T03:23:24;6.37;;;5.07;;
66189;SDS011;52992;52.084;5.412;2022-07-04T03:25:51;6.50;;;4.90;;
66189;SDS011;52992;52.084;5.412;2022-07-04T03:28:17;5.50;;;4.47;;
66189;SDS011;52992;52.084;5.412;2022-07-04T03:30:44;6.17;;;5.10;;
66189;SDS011;52992;52.084;5.412;2022-07-04T03:33:11;7.00;;;5.80;;
66189;SDS011;52992;52.084;5.412;2022-07-04T03:35:38;6.90;;;4.80;;
66189;SDS011;52992;52.084;5.412;2022-07-04T03:38:05;6.63;;;5.00;;
66189;SDS011;52992;52.084;5.412;2022-07-04T03:40:32;8.77;;;5.30;;
66189;SDS011;52992;52.084;5.412;2022-07-04T03:43:02;8.27;;;5.00;;
66189;SDS011;52992;52.084;5.412;2022-07-04T03:45:32;16.93;;;5.77;;
66189;SDS011;52992;52.084;5.412;2022-07-04T03:48:00;10.33;;;5.50;;
66189;SDS011;52992;52.084;5.412;2022-07-04T03:50:32;8.70;;;5.30;;
66189;SDS011;52992;52.084;5.412;2022-07-04T03:53:00;8.43;;;5.57;;
66189;SDS011;52992;52.084;5.412;2022-07-04T03:55:26;7.20;;;5.20;;
66189;SDS011;52992;52.084;5.412;2022-07-04T03:57:53;6.53;;;5.10;;
66189;SDS011;52992;52.084;5.412;2022-07-04T04:00:20;10.30;;;5.40;;
66189;SDS011;52992;52.084;5.412;2022-07-04T04:02:47;9.07;;;5.80;;
66189;SDS011;52992;52.084;5.412;2022-07-04T04:05:14;13.47;;;6.10;;
66189;SDS011;52992;52.084;5.412;2022-07-04T04:07:54;9.13;;;5.47;;
66189;SDS011;52992;52.084;5.412;2022-07-04T04:10:22;8.30;;;6.00;;
66189;SDS011;52992;52.084;5.412;2022-07-04T04:12:50;7.33;;;5.53;;
66189;SDS011;52992;52.084;5.412;2022-07-04T04:15:26;7.47;;;5.57;;
66189;SDS011;52992;52.084;5.412;2022-07-04T04:17:53;5.60;;;5.00;;
66189;SDS011;52992;52.084;5.412;2022-07-04T04:20:21;6.37;;;5.20;;
66189;SDS011;52992;52.084;5.412;2022-07-04T04:22:48;8.00;;;5.60;;
66189;SDS011;52992;52.084;5.412;2022-07-04T04:25:16;7.17;;;5.43;;
66189;SDS011;52992;52.084;5.412;2022-07-04T04:27:44;8.30;;;5.67;;
66189;SDS011;52992;52.084;5.412;2022-07-04T04:30:11;11.70;;;6.00;;
66189;SDS011;52992;52.084;5.412;2022-07-04T04:32:38;8.47;;;5.47;;
66189;SDS011;52992;52.084;5.412;2022-07-04T04:35:06;9.97;;;6.03;;
66189;SDS011;52992;52.084;5.412;2022-07-04T04:37:34;6.90;;;5.63;;
66189;SDS011;52992;52.084;5.412;2022-07-04T04:40:01;7.93;;;6.30;;
66189;SDS011;52992;52.084;5.412;2022-07-04T04:42:31;8.77;;;5.77;;
66189;SDS011;52992;52.084;5.412;2022-07-04T04:44:58;7.20;;;5.80;;
66189;SDS011;52992;52.084;5.412;2022-07-04T04:47:25;10.60;;;6.33;;
66189;SDS011;52992;52.084;5.412;2022-07-04T04:49:52;8.93;;;5.63;;
66189;SDS011;52992;52.084;5.412;2022-07-04T04:52:25;7.90;;;4.67;;
66189;SDS011;52992;52.084;5.412;2022-07-04T04:54:53;8.37;;;5.40;;
66189;SDS011;52992;52.084;5.412;2022-07-04T04:57:22;9.10;;;6.37;;
66189;SDS011;52992;52.084;5.412;2022-07-04T04:59:51;7.63;;;5.47;;
66189;SDS011;52992;52.084;5.412;2022-07-04T05:02:21;8.33;;;5.73;;
66189;SDS011;52992;52.084;5.412;2022-07-04T05:04:47;10.27;;;5.77;;
66189;SDS011;52992;52.084;5.412;2022-07-04T05:07:14;9.10;;;6.00;;
66189;SDS011;52992;52.084;5.412;2022-07-04T05:09:41;7.90;;;5.57;;
66189;SDS011;52992;52.084;5.412;2022-07-04T05:12:08;11.33;;;5.50;;
66189;SDS011;52992;52.084;5.412;2022-07-04T05:14:35;11.73;;;5.70;;
66189;SDS011;52992;52.084;5.412;2022-07-04T05:17:02;8.77;;;5.70;;
66189;SDS011;52992;52.084;5.412;2022-07-04T05:19:29;7.83;;;5.20;;
66189;SDS011;52992;52.084;5.412;2022-07-04T05:21:56;7.37;;;5.37;;
66189;SDS011;52992;52.084;5.412;2022-07-04T05:24:23;10.00;;;5.27;;
66189;SDS011;52992;52.084;5.412;2022-07-04T05:26:50;12.80;;;4.70;;
66189;SDS011;52992;52.084;5.412;2022-07-04T05:29:23;11.63;;;4.90;;
66189;SDS011;52992;52.084;5.412;2022-07-04T05:31:50;5.57;;;4.30;;
66189;SDS011;52992;52.084;5.412;2022-07-04T05:34:17;8.70;;;4.73;;
66189;SDS011;52992;52.084;5.412;2022-07-04T05:36:45;9.83;;;4.60;;
66189;SDS011;52992;52.084;5.412;2022-07-04T05:39:11;6.73;;;4.90;;
66189;SDS011;52992;52.084;5.412;2022-07-04T05:41:38;6.80;;;4.17;;
66189;SDS011;52992;52.084;5.412;2022-07-04T05:44:05;7.10;;;4.37;;
66189;SDS011;52992;52.084;5.412;2022-07-04T05:46:32;8.53;;;4.53;;
66189;SDS011;52992;52.084;5.412;2022-07-04T05:48:59;9.00;;;4.57;;
66189;SDS011;52992;52.084;5.412;2022-07-04T05:51:26;5.33;;;3.90;;
66189;SDS011;52992;52.084;5.412;2022-07-04T05:53:53;8.27;;;4.57;;
66189;SDS011;52992;52.084;5.412;2022-07-04T05:56:20;6.03;;;4.17;;
66189;SDS011;52992;52.084;5.412;2022-07-04T05:58:47;8.63;;;4.40;;
66189;SDS011;52992;52.084;5.412;2022-07-04T06:01:14;8.87;;;4.30;;
66189;SDS011;52992;52.084;5.412;2022-07-04T06:03:41;5.57;;;4.10;;
66189;SDS011;52992;52.084;5.412;2022-07-04T06:06:07;5.57;;;3.70;;
66189;SDS011;52992;52.084;5.412;2022-07-04T06:08:34;7.87;;;3.97;;
66189;SDS011;52992;52.084;5.412;2022-07-04T06:11:02;6.13;;;3.80;;
66189;SDS011;52992;52.084;5.412;2022-07-04T06:13:29;5.80;;;4.50;;
66189;SDS011;52992;52.084;5.412;2022-07-04T06:15:56;7.83;;;4.43;;
66189;SDS011;52992;52.084;5.412;2022-07-04T06:18:23;4.83;;;4.03;;
66189;SDS011;52992;52.084;5.412;2022-07-04T06:20:50;8.67;;;4.77;;
66189;SDS011;52992;52.084;5.412;2022-07-04T06:23:17;8.50;;;3.87;;
66189;SDS011;52992;52.084;5.412;2022-07-04T06:25:44;10.57;;;4.90;;
66189;SDS011;52992;52.084;5.412;2022-07-04T06:28:10;7.10;;;3.97;;
66189;SDS011;52992;52.084;5.412;2022-07-04T06:30:57;6.43;;;3.67;;
66189;SDS011;52992;52.084;5.412;2022-07-04T06:33:24;10.67;;;4.30;;
66189;SDS011;52992;52.084;5.412;2022-07-04T06:35:51;6.93;;;3.80;;
66189;SDS011;52992;52.084;5.412;2022-07-04T06:38:22;6.33;;;3.93;;
66189;SDS011;52992;52.084;5.412;2022-07-04T06:40:53;6.20;;;4.30;;
66189;SDS011;52992;52.084;5.412;2022-07-04T06:43:21;7.37;;;4.20;;
66189;SDS011;52992;52.084;5.412;2022-07-04T06:45:49;8.33;;;4.50;;
66189;SDS011;52992;52.084;5.412;2022-07-04T06:48:17;7.43;;;3.97;;
66189;SDS011;52992;52.084;5.412;2022-07-04T06:50:45;7.27;;;4.10;;
66189;SDS011;52992;52.084;5.412;2022-07-04T06:53:12;9.53;;;4.70;;
66189;SDS011;52992;52.084;5.412;2022-07-04T06:55:39;8.37;;;4.03;;
66189;SDS011;52992;52.084;5.412;2022-07-04T06:58:08;7.63;;;4.67;;
66189;SDS011;52992;52.084;5.412;2022-07-04T07:00:36;9.60;;;4.47;;
66189;SDS011;52992;52.084;5.412;2022-07-04T07:03:03;8.77;;;4.37;;
66189;SDS011;52992;52.084;5.412;2022-07-04T07:05:30;10.33;;;5.13;;
66189;SDS011;52992;52.084;5.412;2022-07-04T07:08:17;10.13;;;5.30;;
66189;SDS011;52992;52.084;5.412;2022-07-04T07:10:44;13.63;;;4.57;;
66189;SDS011;52992;52.084;5.412;2022-07-04T07:13:11;9.53;;;5.57;;
66189;SDS011;52992;52.084;5.412;2022-07-04T07:15:38;11.30;;;5.33;;
66189;SDS011;52992;52.084;5.412;2022-07-04T07:18:05;7.80;;;4.70;;
66189;SDS011;52992;52.084;5.412;2022-07-04T07:20:32;5.87;;;4.83;;
66189;SDS011;52992;52.084;5.412;2022-07-04T07:23:03;9.47;;;4.73;;
66189;SDS011;52992;52.084;5.412;2022-07-04T07:25:30;9.03;;;4.67;;
66189;SDS011;52992;52.084;5.412;2022-07-04T07:27:57;7.53;;;3.90;;
66189;SDS011;52992;52.084;5.412;2022-07-04T07:30:25;6.03;;;4.10;;
66189;SDS011;52992;52.084;5.412;2022-07-04T07:32:52;5.77;;;3.80;;
66189;SDS011;52992;52.084;5.412;2022-07-04T07:35:19;8.90;;;4.33;;
66189;SDS011;52992;52.084;5.412;2022-07-04T07:37:45;8.33;;;4.00;;
66189;SDS011;52992;52.084;5.412;2022-07-04T07:40:12;9.07;;;5.53;;
66189;SDS011;52992;52.084;5.412;2022-07-04T07:42:39;6.73;;;4.33;;
66189;SDS011;52992;52.084;5.412;2022-07-04T07:45:06;5.47;;;4.27;;
66189;SDS011;52992;52.084;5.412;2022-07-04T07:47:34;7.27;;;4.17;;
66189;SDS011;52992;52.084;5.412;2022-07-04T07:50:00;5.53;;;4.07;;
66189;SDS011;52992;52.084;5.412;2022-07-04T07:52:29;7.07;;;3.80;;
66189;SDS011;52992;52.084;5.412;2022-07-04T07:54:57;9.10;;;3.70;;
66189;SDS011;52992;52.084;5.412;2022-07-04T07:57:26;7.73;;;3.80;;
66189;SDS011;52992;52.084;5.412;2022-07-04T07:59:53;5.27;;;3.63;;
66189;SDS011;52992;52.084;5.412;2022-07-04T08:02:21;7.03;;;3.73;;
66189;SDS011;52992;52.084;5.412;2022-07-04T08:05:08;5.63;;;3.20;;
66189;SDS011;52992;52.084;5.412;2022-07-04T08:07:35;8.97;;;3.47;;
66189;SDS011;52992;52.084;5.412;2022-07-04T08:10:03;6.10;;;3.40;;
66189;SDS011;52992;52.084;5.412;2022-07-04T08:12:31;9.97;;;3.50;;
66189;SDS011;52992;52.084;5.412;2022-07-04T08:14:58;5.33;;;3.00;;
66189;SDS011;52992;52.084;5.412;2022-07-04T08:17:32;6.63;;;4.00;;
66189;SDS011;52992;52.084;5.412;2022-07-04T08:19:59;6.87;;;3.27;;
66189;SDS011;52992;52.084;5.412;2022-07-04T08:22:26;8.13;;;3.67;;
66189;SDS011;52992;52.084;5.412;2022-07-04T08:24:53;7.03;;;2.90;;
66189;SDS011;52992;52.084;5.412;2022-07-04T08:27:20;4.50;;;2.63;;
66189;SDS011;52992;52.084;5.412;2022-07-04T08:29:57;6.83;;;3.27;;
66189;SDS011;52992;52.084;5.412;2022-07-04T08:32:23;4.97;;;3.80;;
66189;SDS011;52992;52.084;5.412;2022-07-04T08:34:51;6.20;;;3.13;;
66189;SDS011;52992;52.084;5.412;2022-07-04T08:37:17;6.20;;;2.30;;
66189;SDS011;52992;52.084;5.412;2022-07-04T08:39:44;6.40;;;2.93;;
66189;SDS011;52992;52.084;5.412;2022-07-04T08:42:16;6.00;;;3.40;;
66189;SDS011;52992;52.084;5.412;2022-07-04T08:44:48;5.93;;;3.37;;
66189;SDS011;52992;52.084;5.412;2022-07-04T08:47:22;4.37;;;2.50;;
66189;SDS011;52992;52.084;5.412;2022-07-04T08:49:58;4.17;;;3.03;;
66189;SDS011;52992;52.084;5.412;2022-07-04T08:52:47;4.73;;;2.63;;
66189;SDS011;52992;52.084;5.412;2022-07-04T08:55:20;3.37;;;2.37;;
66189;SDS011;52992;52.084;5.412;2022-07-04T08:58:06;4.27;;;2.47;;
66189;SDS011;52992;52.084;5.412;2022-07-04T09:00:53;5.73;;;2.50;;
66189;SDS011;52992;52.084;5.412;2022-07-04T09:03:21;4.90;;;2.50;;
66189;SDS011;52992;52.084;5.412;2022-07-04T09:05:49;3.50;;;2.50;;
66189;SDS011;52992;52.084;5.412;2022-07-04T09:08:16;3.47;;;2.40;;
66189;SDS011;52992;52.084;5.412;2022-07-04T09:10:44;2.93;;;2.00;;
66189;SDS011;52992;52.084;5.412;2022-07-04T09:13:11;3.03;;;2.27;;
66189;SDS011;52992;52.084;5.412;2022-07-04T09:15:40;6.13;;;2.17;;
66189;SDS011;52992;52.084;5.412;2022-07-04T09:18:28;4.70;;;2.20;;
66189;SDS011;52992;52.084;5.412;2022-07-04T09:20:55;3.63;;;2.00;;
66189;SDS011;52992;52.084;5.412;2022-07-04T09:23:25;5.23;;;2.10;;
66189;SDS011;52992;52.084;5.412;2022-07-04T09:28:42;3.37;;;1.93;;
66189;SDS011;52992;52.084;5.412;2022-07-04T09:34:07;4.83;;;2.37;;
66189;SDS011;52992;52.084;5.412;2022-07-04T09:36:42;5.60;;;2.67;;
66189;SDS011;52992;52.084;5.412;2022-07-04T09:39:11;5.23;;;3.80;;
66189;SDS011;52992;52.084;5.412;2022-07-04T09:41:52;9.20;;;5.47;;
66189;SDS011;52992;52.084;5.412;2022-07-04T09:44:26;5.67;;;2.50;;
66189;SDS011;52992;52.084;5.412;2022-07-04T09:46:55;6.90;;;2.20;;
66189;SDS011;52992;52.084;5.412;2022-07-04T09:49:23;5.00;;;2.57;;
66189;SDS011;52992;52.084;5.412;2022-07-04T09:51:51;4.30;;;2.13;;
66189;SDS011;52992;52.084;5.412;2022-07-04T09:56:50;4.80;;;2.23;;
66189;SDS011;52992;52.084;5.412;2022-07-04T09:59:18;3.07;;;1.80;;
66189;SDS011;52992;52.084;5.412;2022-07-04T10:01:46;1.93;;;1.83;;
66189;SDS011;52992;52.084;5.412;2022-07-04T10:04:13;5.20;;;2.20;;
66189;SDS011;52992;52.084;5.412;2022-07-04T10:06:41;5.37;;;2.00;;
66189;SDS011;52992;52.084;5.412;2022-07-04T10:09:12;2.40;;;2.20;;
66189;SDS011;52992;52.084;5.412;2022-07-04T10:11:44;2.50;;;2.00;;
66189;SDS011;52992;52.084;5.412;2022-07-04T10:14:13;4.00;;;2.17;;
66189;SDS011;52992;52.084;5.412;2022-07-04T10:16:41;2.27;;;2.07;;
66189;SDS011;52992;52.084;5.412;2022-07-04T10:19:09;2.20;;;2.00;;
66189;SDS011;52992;52.084;5.412;2022-07-04T10:21:38;3.57;;;2.10;;
66189;SDS011;52992;52.084;5.412;2022-07-04T10:24:06;3.50;;;2.20;;
66189;SDS011;52992;52.084;5.412;2022-07-04T10:26:33;3.67;;;2.10;;
66189;SDS011;52992;52.084;5.412;2022-07-04T10:29:00;2.30;;;2.10;;
66189;SDS011;52992;52.084;5.412;2022-07-04T10:31:27;5.93;;;2.30;;
66189;SDS011;52992;52.084;5.412;2022-07-04T10:33:57;2.23;;;2.00;;
66189;SDS011;52992;52.084;5.412;2022-07-04T10:36:26;3.47;;;2.43;;
66189;SDS011;52992;52.084;5.412;2022-07-04T10:38:58;2.33;;;2.13;;
66189;SDS011;52992;52.084;5.412;2022-07-04T10:41:28;3.20;;;2.17;;
66189;SDS011;52992;52.084;5.412;2022-07-04T10:46:45;4.43;;;2.23;;
66189;SDS011;52992;52.084;5.412;2022-07-04T10:51:41;2.50;;;2.30;;
66189;SDS011;52992;52.084;5.412;2022-07-04T10:54:16;4.30;;;2.07;;
66189;SDS011;52992;52.084;5.412;2022-07-04T10:59:18;4.70;;;2.20;;
66189;SDS011;52992;52.084;5.412;2022-07-04T11:01:48;3.30;;;2.00;;
66189;SDS011;52992;52.084;5.412;2022-07-04T11:17:51;1.83;;;1.70;;
66189;SDS011;52992;52.084;5.412;2022-07-04T11:20:19;1.70;;;1.60;;
66189;SDS011;52992;52.084;5.412;2022-07-04T11:22:48;4.07;;;1.90;;
66189;SDS011;52992;52.084;5.412;2022-07-04T11:25:15;2.00;;;1.80;;
66189;SDS011;52992;52.084;5.412;2022-07-04T11:27:42;3.57;;;1.83;;
66189;SDS011;52992;52.084;5.412;2022-07-04T11:30:09;5.00;;;1.93;;
66189;SDS011;52992;52.084;5.412;2022-07-04T11:32:41;2.90;;;1.83;;
66189;SDS011;52992;52.084;5.412;2022-07-04T11:35:08;3.57;;;1.40;;
66189;SDS011;52992;52.084;5.412;2022-07-04T11:37:35;2.40;;;1.83;;
66189;SDS011;52992;52.084;5.412;2022-07-04T11:40:02;2.27;;;1.37;;
66189;SDS011;52992;52.084;5.412;2022-07-04T11:43:03;2.90;;;1.60;;
66189;SDS011;52992;52.084;5.412;2022-07-04T11:45:49;2.67;;;1.63;;
66189;SDS011;52992;52.084;5.412;2022-07-04T11:48:26;3.27;;;1.73;;
66189;SDS011;52992;52.084;5.412;2022-07-04T11:50:53;1.70;;;1.60;;
66189;SDS011;52992;52.084;5.412;2022-07-04T11:53:21;1.67;;;1.33;;
66189;SDS011;52992;52.084;5.412;2022-07-04T11:55:54;3.27;;;1.63;;
66189;SDS011;52992;52.084;5.412;2022-07-04T11:58:22;2.73;;;1.47;;
66189;SDS011;52992;52.084;5.412;2022-07-04T12:00:50;3.00;;;1.50;;
66189;SDS011;52992;52.084;5.412;2022-07-04T12:03:16;2.47;;;1.77;;
66189;SDS011;52992;52.084;5.412;2022-07-04T12:05:44;2.27;;;1.67;;
66189;SDS011;52992;52.084;5.412;2022-07-04T12:08:12;2.53;;;1.70;;
66189;SDS011;52992;52.084;5.412;2022-07-04T12:10:54;3.20;;;1.60;;
66189;SDS011;52992;52.084;5.412;2022-07-04T12:13:21;2.17;;;1.43;;
66189;SDS011;52992;52.084;5.412;2022-07-04T12:15:49;1.73;;;1.60;;
66189;SDS011;52992;52.084;5.412;2022-07-04T12:18:28;1.97;;;1.30;;
66189;SDS011;52992;52.084;5.412;2022-07-04T12:21:14;2.93;;;1.60;;
66189;SDS011;52992;52.084;5.412;2022-07-04T12:23:51;2.03;;;1.40;;
66189;SDS011;52992;52.084;5.412;2022-07-04T12:26:44;2.10;;;1.57;;
66189;SDS011;52992;52.084;5.412;2022-07-04T12:29:23;3.10;;;1.70;;
66189;SDS011;52992;52.084;5.412;2022-07-04T12:31:57;4.30;;;1.77;;
66189;SDS011;52992;52.084;5.412;2022-07-04T12:34:24;1.67;;;1.43;;
66189;SDS011;52992;52.084;5.412;2022-07-04T12:36:51;2.70;;;1.70;;
66189;SDS011;52992;52.084;5.412;2022-07-04T12:39:26;3.23;;;1.60;;
66189;SDS011;52992;52.084;5.412;2022-07-04T12:42:31;2.70;;;1.50;;
66189;SDS011;52992;52.084;5.412;2022-07-04T12:44:50;1.57;;;1.40;;
66189;SDS011;52992;52.084;5.412;2022-07-04T12:47:17;2.40;;;1.30;;
66189;SDS011;52992;52.084;5.412;2022-07-04T12:49:58;3.23;;;1.67;;
66189;SDS011;52992;52.084;5.412;2022-07-04T12:52:28;2.20;;;1.50;;
66189;SDS011;52992;52.084;5.412;2022-07-04T12:55:05;1.97;;;1.53;;
66189;SDS011;52992;52.084;5.412;2022-07-04T12:57:36;1.40;;;1.30;;
66189;SDS011;52992;52.084;5.412;2022-07-04T13:00:03;3.83;;;1.60;;
66189;SDS011;52992;52.084;5.412;2022-07-04T13:02:50;1.43;;;1.23;;
66189;SDS011;52992;52.084;5.412;2022-07-04T13:05:17;2.73;;;1.30;;
66189;SDS011;52992;52.084;5.412;2022-07-04T13:07:44;3.33;;;1.60;;
66189;SDS011;52992;52.084;5.412;2022-07-04T13:10:12;2.47;;;1.40;;
66189;SDS011;52992;52.084;5.412;2022-07-04T13:12:39;1.63;;;1.37;;
66189;SDS011;52992;52.084;5.412;2022-07-04T13:15:06;2.57;;;1.47;;
66189;SDS011;52992;52.084;5.412;2022-07-04T13:17:37;3.90;;;1.60;;
66189;SDS011;52992;52.084;5.412;2022-07-04T13:20:04;1.80;;;1.70;;
66189;SDS011;52992;52.084;5.412;2022-07-04T13:22:31;1.43;;;1.33;;
66189;SDS011;52992;52.084;5.412;2022-07-04T13:24:58;2.17;;;1.50;;
66189;SDS011;52992;52.084;5.412;2022-07-04T13:27:27;2.50;;;1.30;;
66189;SDS011;52992;52.084;5.412;2022-07-04T13:29:54;1.77;;;1.27;;
66189;SDS011;52992;52.084;5.412;2022-07-04T13:32:21;1.88;;;1.33;;
66189;SDS011;52992;52.084;5.412;2022-07-04T13:34:48;1.80;;;1.53;;
66189;SDS011;52992;52.084;5.412;2022-07-04T13:37:17;1.53;;;1.17;;
66189;SDS011;52992;52.084;5.412;2022-07-04T13:39:45;1.50;;;1.40;;
66189;SDS011;52992;52.084;5.412;2022-07-04T13:42:17;1.60;;;1.40;;
66189;SDS011;52992;52.084;5.412;2022-07-04T13:45:05;1.42;;;1.33;;
66189;SDS011;52992;52.084;5.412;2022-07-04T13:47:33;1.70;;;1.40;;
66189;SDS011;52992;52.084;5.412;2022-07-04T13:50:00;2.17;;;1.40;;
66189;SDS011;52992;52.084;5.412;2022-07-04T13:52:27;2.25;;;1.70;;
66189;SDS011;52992;52.084;5.412;2022-07-04T13:54:54;2.22;;;1.30;;
66189;SDS011;52992;52.084;5.412;2022-07-04T13:57:21;1.80;;;1.50;;
66189;SDS011;52992;52.084;5.412;2022-07-04T13:59:48;1.40;;;1.30;;
66189;SDS011;52992;52.084;5.412;2022-07-04T14:02:14;1.65;;;1.30;;
66189;SDS011;52992;52.084;5.412;2022-07-04T14:04:41;1.30;;;1.20;;
66189;SDS011;52992;52.084;5.412;2022-07-04T14:07:08;1.45;;;1.13;;
66189;SDS011;52992;52.084;5.412;2022-07-04T14:09:44;1.73;;;1.30;;
66189;SDS011;52992;52.084;5.412;2022-07-04T14:12:11;1.80;;;1.20;;
66189;SDS011;52992;52.084;5.412;2022-07-04T14:14:38;1.60;;;1.50;;
66189;SDS011;52992;52.084;5.412;2022-07-04T14:17:05;2.15;;;1.20;;
66189;SDS011;52992;52.084;5.412;2022-07-04T14:19:51;1.70;;;1.60;;
66189;SDS011;52992;52.084;5.412;2022-07-04T14:22:18;3.13;;;1.40;;
66189;SDS011;52992;52.084;5.412;2022-07-04T14:24:45;2.25;;;1.60;;
66189;SDS011;52992;52.084;5.412;2022-07-04T14:27:12;2.17;;;1.50;;
66189;SDS011;52992;52.084;5.412;2022-07-04T14:29:39;3.05;;;1.55;;
66189;SDS011;52992;52.084;5.412;2022-07-04T14:32:09;1.60;;;1.50;;
66189;SDS011;52992;52.084;5.412;2022-07-04T14:34:36;2.42;;;1.52;;
66189;SDS011;52992;52.084;5.412;2022-07-04T14:37:03;1.55;;;1.40;;
66189;SDS011;52992;52.084;5.412;2022-07-04T14:39:30;1.55;;;1.20;;
66189;SDS011;52992;52.084;5.412;2022-07-04T14:41:57;2.75;;;1.38;;
66189;SDS011;52992;52.084;5.412;2022-07-04T14:44:24;1.45;;;1.35;;
66189;SDS011;52992;52.084;5.412;2022-07-04T14:46:51;2.08;;;1.45;;
66189;SDS011;52992;52.084;5.412;2022-07-04T14:49:17;1.50;;;1.40;;
66189;SDS011;52992;52.084;5.412;2022-07-04T14:51:44;1.70;;;1.60;;
66189;SDS011;52992;52.084;5.412;2022-07-04T14:54:11;3.25;;;1.80;;
66189;SDS011;52992;52.084;5.412;2022-07-04T14:56:39;1.65;;;1.45;;
66189;SDS011;52992;52.084;5.412;2022-07-04T14:59:06;2.80;;;1.60;;
66189;SDS011;52992;52.084;5.412;2022-07-04T15:01:32;1.65;;;1.50;;
66189;SDS011;52992;52.084;5.412;2022-07-04T15:03:59;2.80;;;1.60;;
66189;SDS011;52992;52.084;5.412;2022-07-04T15:06:26;3.20;;;2.15;;
66189;SDS011;52992;52.084;5.412;2022-07-04T15:08:53;1.60;;;1.50;;
66189;SDS011;52992;52.084;5.412;2022-07-04T15:11:20;1.90;;;1.80;;
66189;SDS011;52992;52.084;5.412;2022-07-04T15:13:47;2.77;;;1.50;;
66189;SDS011;52992;52.084;5.412;2022-07-04T15:16:13;2.42;;;1.40;;
66189;SDS011;52992;52.084;5.412;2022-07-04T15:18:52;3.80;;;1.73;;
66189;SDS011;52992;52.084;5.412;2022-07-04T15:21:20;2.77;;;1.60;;
66189;SDS011;52992;52.084;5.412;2022-07-04T15:24:06;2.20;;;1.57;;
66189;SDS011;52992;52.084;5.412;2022-07-04T15:26:41;1.80;;;1.70;;
66189;SDS011;52992;52.084;5.412;2022-07-04T15:29:12;3.27;;;2.77;;